McAlester, Oklahoma
Current Conditions -  °F | °C
As of 2:53 PM on Friday 28 Nov 2014 (Local Time) from KMLC Reporting Station
Broken Clouds Broken Clouds  
Wind Chill: 68°   Ceiling: 12000
Heat Index: 68°   Visibility: 10mi
Dew Point: 43°   Wind: 17mph
Humidity: 40%   Direction: 190°S
Pressure: 29.98"   Gusts: 28mph
Location:  34.93°N, 95.77°W
Report Text: KMLC 282053Z AUTO 19015G24KT 10SM SCT100 BKN120 20/06 A2998 RMK AO2 SLP148 T02000061 56044
Loading
Personal Weather Stations






























Interactive Weather Map New forecast layout! Learn more

10-Day Weather Forecast

Advertisements
Track Severe Weather on mobile